sensor_id;sensor_type;location;lat;lon;timestamp;pressure;altitude;pressure_sealevel;temperature;humidity
58690;BME280;44470;53.206;-6.106;2023-03-20T00:00:46;101106.25;;;19.20;58.33
58690;BME280;44470;53.206;-6.106;2023-03-20T00:03:12;101098.25;;;19.20;58.46
58690;BME280;44470;53.206;-6.106;2023-03-20T00:05:38;101098.25;;;19.19;58.43
58690;BME280;44470;53.206;-6.106;2023-03-20T00:08:04;101097.38;;;19.18;58.75
58690;BME280;44470;53.206;-6.106;2023-03-20T00:10:41;101094.72;;;19.18;58.52
58690;BME280;44470;53.206;-6.106;2023-03-20T00:13:14;101103.63;;;19.17;58.91
58690;BME280;44470;53.206;-6.106;2023-03-20T00:15:44;101097.38;;;19.18;58.74
58690;BME280;44470;53.206;-6.106;2023-03-20T00:18:15;101108.06;;;19.18;58.82
58690;BME280;44470;53.206;-6.106;2023-03-20T00:20:46;101100.97;;;19.17;58.49
58690;BME280;44470;53.206;-6.106;2023-03-20T00:23:12;101097.38;;;19.18;58.78
58690;BME280;44470;53.206;-6.106;2023-03-20T00:25:39;101099.16;;;19.17;58.75
58690;BME280;44470;53.206;-6.106;2023-03-20T00:28:43;101092.91;;;19.19;58.68
58690;BME280;44470;53.206;-6.106;2023-03-20T00:31:39;101109.84;;;19.17;58.74
58690;BME280;44470;53.206;-6.106;2023-03-20T00:34:09;101097.38;;;19.16;58.91
58690;BME280;44470;53.206;-6.106;2023-03-20T00:36:36;101106.28;;;19.17;58.49
58690;BME280;44470;53.206;-6.106;2023-03-20T00:39:02;101107.19;;;19.16;58.69
58690;BME280;44470;53.206;-6.106;2023-03-20T00:41:40;101107.19;;;19.16;58.82
58690;BME280;44470;53.206;-6.106;2023-03-20T00:44:31;101103.63;;;19.15;58.63
58690;BME280;44470;53.206;-6.106;2023-03-20T00:47:02;101096.53;;;19.16;58.76
58690;BME280;44470;53.206;-6.106;2023-03-20T00:49:33;101099.19;;;19.16;58.97
58690;BME280;44470;53.206;-6.106;2023-03-20T00:52:00;101099.19;;;19.16;58.82
58690;BME280;44470;53.206;-6.106;2023-03-20T00:54:26;101097.41;;;19.15;59.09
58690;BME280;44470;53.206;-6.106;2023-03-20T00:59:27;101097.41;;;19.15;58.84
58690;BME280;44470;53.206;-6.106;2023-03-20T01:01:54;101096.53;;;19.14;58.67
58690;BME280;44470;53.206;-6.106;2023-03-20T01:04:20;101095.66;;;19.14;58.99
58690;BME280;44470;53.206;-6.106;2023-03-20T01:06:46;101092.97;;;19.15;58.81
58690;BME280;44470;53.206;-6.106;2023-03-20T01:09:12;101092.09;;;19.15;58.93
58690;BME280;44470;53.206;-6.106;2023-03-20T01:11:38;101088.53;;;19.16;59.00
58690;BME280;44470;53.206;-6.106;2023-03-20T01:14:06;101092.09;;;19.15;58.91
58690;BME280;44470;53.206;-6.106;2023-03-20T01:16:37;101092.09;;;19.15;59.15
58690;BME280;44470;53.206;-6.106;2023-03-20T01:19:03;101092.09;;;19.15;59.04
58690;BME280;44470;53.206;-6.106;2023-03-20T01:21:29;101084.09;;;19.15;59.00
58690;BME280;44470;53.206;-6.106;2023-03-20T01:23:54;101081.41;;;19.15;58.90
58690;BME280;44470;53.206;-6.106;2023-03-20T01:26:26;101083.19;;;19.16;58.82
58690;BME280;44470;53.206;-6.106;2023-03-20T01:28:54;101073.41;;;19.13;58.83
58690;BME280;44470;53.206;-6.106;2023-03-20T01:31:20;101079.66;;;19.14;58.85
58690;BME280;44470;53.206;-6.106;2023-03-20T01:33:46;101089.41;;;19.13;58.95
58690;BME280;44470;53.206;-6.106;2023-03-20T01:36:14;101098.28;;;19.15;59.03
58690;BME280;44470;53.206;-6.106;2023-03-20T01:38:40;101080.50;;;19.14;59.12
58690;BME280;44470;53.206;-6.106;2023-03-20T01:41:13;101087.63;;;19.15;58.99
58690;BME280;44470;53.206;-6.106;2023-03-20T01:43:42;101081.41;;;19.15;59.04
58690;BME280;44470;53.206;-6.106;2023-03-20T01:51:22;101069.84;;;19.14;58.99
58690;BME280;44470;53.206;-6.106;2023-03-20T01:54:27;101075.22;;;19.13;59.08
58690;BME280;44470;53.206;-6.106;2023-03-20T01:56:53;101074.31;;;19.14;58.76
58690;BME280;44470;53.206;-6.106;2023-03-20T01:59:37;101068.06;;;19.13;59.12
58690;BME280;44470;53.206;-6.106;2023-03-20T02:02:07;101085.00;;;19.14;59.21
58690;BME280;44470;53.206;-6.106;2023-03-20T02:04:36;101085.88;;;19.13;58.94
58690;BME280;44470;53.206;-6.106;2023-03-20T02:07:10;101085.88;;;19.13;58.88
58690;BME280;44470;53.206;-6.106;2023-03-20T02:09:40;101075.22;;;19.13;58.98
58690;BME280;44470;53.206;-6.106;2023-03-20T02:12:10;101075.19;;;19.14;59.07
58690;BME280;44470;53.206;-6.106;2023-03-20T02:14:37;101062.75;;;19.13;59.05
58690;BME280;44470;53.206;-6.106;2023-03-20T02:17:19;101056.53;;;19.13;59.04
58690;BME280;44470;53.206;-6.106;2023-03-20T02:20:30;101059.22;;;19.13;59.14
58690;BME280;44470;53.206;-6.106;2023-03-20T02:51:18;101031.63;;;19.12;59.26
58690;BME280;44470;53.206;-6.106;2023-03-20T02:57:04;101032.53;;;19.11;59.17
58690;BME280;44470;53.206;-6.106;2023-03-20T02:59:45;101030.75;;;19.12;59.03
58690;BME280;44470;53.206;-6.106;2023-03-20T03:02:18;101027.19;;;19.11;59.25
58690;BME280;44470;53.206;-6.106;2023-03-20T03:04:55;101027.19;;;19.11;59.15
58690;BME280;44470;53.206;-6.106;2023-03-20T03:07:25;101022.75;;;19.12;59.08
58690;BME280;44470;53.206;-6.106;2023-03-20T03:09:55;101012.94;;;19.12;59.29
58690;BME280;44470;53.206;-6.106;2023-03-20T03:12:29;101008.56;;;19.10;59.01
58690;BME280;44470;53.206;-6.106;2023-03-20T03:15:20;101013.84;;;19.11;59.05
58690;BME280;44470;53.206;-6.106;2023-03-20T03:17:48;101007.66;;;19.11;59.01
58690;BME280;44470;53.206;-6.106;2023-03-20T03:20:25;101007.66;;;19.11;59.01
58690;BME280;44470;53.206;-6.106;2023-03-20T03:22:53;101015.66;;;19.11;58.97
58690;BME280;44470;53.206;-6.106;2023-03-20T03:25:22;100995.22;;;19.10;59.12
58690;BME280;44470;53.206;-6.106;2023-03-20T03:27:55;100989.88;;;19.10;59.32
58690;BME280;44470;53.206;-6.106;2023-03-20T03:30:26;100984.50;;;19.11;59.19
58690;BME280;44470;53.206;-6.106;2023-03-20T03:33:40;100990.75;;;19.10;59.18
58690;BME280;44470;53.206;-6.106;2023-03-20T03:36:37;100994.31;;;19.11;59.13
58690;BME280;44470;53.206;-6.106;2023-03-20T03:39:26;100987.22;;;19.10;59.19
58690;BME280;44470;53.206;-6.106;2023-03-20T03:50:30;101005.00;;;19.09;59.26
58690;BME280;44470;53.206;-6.106;2023-03-20T03:53:01;101011.22;;;19.08;58.89
58690;BME280;44470;53.206;-6.106;2023-03-20T03:55:31;101005.88;;;19.08;58.95
58690;BME280;44470;53.206;-6.106;2023-03-20T03:58:40;101014.75;;;19.09;58.97
58690;BME280;44470;53.206;-6.106;2023-03-20T04:01:08;101006.75;;;19.09;59.10
58690;BME280;44470;53.206;-6.106;2023-03-20T04:03:43;101014.75;;;19.09;59.08
58690;BME280;44470;53.206;-6.106;2023-03-20T04:06:11;101015.66;;;19.08;58.94
58690;BME280;44470;53.206;-6.106;2023-03-20T04:08:39;101015.66;;;19.08;59.04
58690;BME280;44470;53.206;-6.106;2023-03-20T04:11:20;101006.75;;;19.09;59.05
58690;BME280;44470;53.206;-6.106;2023-03-20T04:13:48;101008.56;;;19.07;59.12
58690;BME280;44470;53.206;-6.106;2023-03-20T04:16:15;101016.56;;;19.08;59.06
58690;BME280;44470;53.206;-6.106;2023-03-20T04:18:45;101002.31;;;19.08;59.13
58690;BME280;44470;53.206;-6.106;2023-03-20T04:21:12;101001.47;;;19.06;59.00
58690;BME280;44470;53.206;-6.106;2023-03-20T04:23:41;101005.03;;;19.06;58.89
58690;BME280;44470;53.206;-6.106;2023-03-20T04:26:07;100999.66;;;19.08;58.72
58690;BME280;44470;53.206;-6.106;2023-03-20T04:28:34;101013.03;;;19.06;59.05
58690;BME280;44470;53.206;-6.106;2023-03-20T04:31:18;101012.13;;;19.06;58.82
58690;BME280;44470;53.206;-6.106;2023-03-20T04:34:00;101021.03;;;19.06;59.03
58690;BME280;44470;53.206;-6.106;2023-03-20T04:36:52;101023.69;;;19.06;58.99
58690;BME280;44470;53.206;-6.106;2023-03-20T04:39:18;101026.38;;;19.05;59.03
58690;BME280;44470;53.206;-6.106;2023-03-20T04:41:44;101017.47;;;19.06;58.91
58690;BME280;44470;53.206;-6.106;2023-03-20T04:44:10;101021.94;;;19.05;58.74
58690;BME280;44470;53.206;-6.106;2023-03-20T04:46:36;101015.69;;;19.05;59.17
58690;BME280;44470;53.206;-6.106;2023-03-20T04:49:06;101017.47;;;19.06;58.90
58690;BME280;44470;53.206;-6.106;2023-03-20T04:51:32;101008.59;;;19.05;58.86
58690;BME280;44470;53.206;-6.106;2023-03-20T04:53:58;101014.78;;;19.06;58.96
58690;BME280;44470;53.206;-6.106;2023-03-20T04:56:23;101025.47;;;19.06;58.82
58690;BME280;44470;53.206;-6.106;2023-03-20T04:58:50;101024.59;;;19.03;58.99
58690;BME280;44470;53.206;-6.106;2023-03-20T05:01:20;101031.72;;;19.05;58.83
58690;BME280;44470;53.206;-6.106;2023-03-20T05:03:45;101026.38;;;19.05;58.72
58690;BME280;44470;53.206;-6.106;2023-03-20T05:06:11;101030.81;;;19.06;58.93
58690;BME280;44470;53.206;-6.106;2023-03-20T05:08:40;101033.47;;;19.06;58.74
58690;BME280;44470;53.206;-6.106;2023-03-20T05:11:06;101037.03;;;19.05;59.03
58690;BME280;44470;53.206;-6.106;2023-03-20T05:14:04;101021.03;;;19.05;58.84
58690;BME280;44470;53.206;-6.106;2023-03-20T05:16:43;101029.94;;;19.05;58.82
58690;BME280;44470;53.206;-6.106;2023-03-20T05:19:29;101021.03;;;19.05;59.05
58690;BME280;44470;53.206;-6.106;2023-03-20T05:22:09;101021.03;;;19.05;59.23
58690;BME280;44470;53.206;-6.106;2023-03-20T05:25:05;101037.03;;;19.05;58.91
58690;BME280;44470;53.206;-6.106;2023-03-20T05:27:57;101024.59;;;19.03;58.86
58690;BME280;44470;53.206;-6.106;2023-03-20T05:30:41;101022.84;;;19.02;58.71
58690;BME280;44470;53.206;-6.106;2023-03-20T05:33:25;101018.41;;;19.03;58.84
58690;BME280;44470;53.206;-6.106;2023-03-20T05:36:20;100993.50;;;19.02;58.93
58690;BME280;44470;53.206;-6.106;2023-03-20T05:38:55;100985.50;;;19.02;58.72
58690;BME280;44470;53.206;-6.106;2023-03-20T05:41:44;100998.81;;;19.02;58.79
58690;BME280;44470;53.206;-6.106;2023-03-20T05:44:34;100991.72;;;19.01;58.62
58690;BME280;44470;53.206;-6.106;2023-03-20T05:47:18;100981.97;;;19.02;58.68
58690;BME280;44470;53.206;-6.106;2023-03-20T05:50:00;100981.06;;;19.01;58.71
58690;BME280;44470;53.206;-6.106;2023-03-20T05:52:46;100996.16;;;19.02;58.84
58690;BME280;44470;53.206;-6.106;2023-03-20T05:55:20;101012.16;;;19.02;59.01
58690;BME280;44470;53.206;-6.106;2023-03-20T05:57:55;101016.63;;;19.02;58.86
58690;BME280;44470;53.206;-6.106;2023-03-20T06:00:28;101028.16;;;19.02;58.89
58690;BME280;44470;53.206;-6.106;2023-03-20T06:03:16;101018.41;;;19.01;58.97
58690;BME280;44470;53.206;-6.106;2023-03-20T06:06:02;101012.19;;;19.01;58.71
58690;BME280;44470;53.206;-6.106;2023-03-20T06:08:28;101016.63;;;19.00;58.68
58690;BME280;44470;53.206;-6.106;2023-03-20T06:10:57;101019.31;;;19.00;58.80
58690;BME280;44470;53.206;-6.106;2023-03-20T06:13:23;101019.31;;;19.00;58.44
58690;BME280;44470;53.206;-6.106;2023-03-20T06:15:49;101009.53;;;19.01;58.59
58690;BME280;44470;53.206;-6.106;2023-03-20T06:18:19;101021.06;;;19.01;58.87
58690;BME280;44470;53.206;-6.106;2023-03-20T06:20:45;101022.88;;;18.99;58.73
58690;BME280;44470;53.206;-6.106;2023-03-20T06:23:10;101030.88;;;19.01;58.80
58690;BME280;44470;53.206;-6.106;2023-03-20T06:25:39;101024.69;;;18.99;58.70
58690;BME280;44470;53.206;-6.106;2023-03-20T06:28:07;101029.09;;;19.00;58.74
58690;BME280;44470;53.206;-6.106;2023-03-20T06:30:33;101033.53;;;18.99;58.71
58690;BME280;44470;53.206;-6.106;2023-03-20T06:32:59;101034.41;;;19.01;58.56
58690;BME280;44470;53.206;-6.106;2023-03-20T06:35:32;101022.88;;;18.99;58.59
58690;BME280;44470;53.206;-6.106;2023-03-20T06:37:58;101025.53;;;19.01;58.52
58690;BME280;44470;53.206;-6.106;2023-03-20T06:40:25;101011.34;;;18.99;58.68
58690;BME280;44470;53.206;-6.106;2023-03-20T06:42:54;100998.88;;;18.99;58.56
58690;BME280;44470;53.206;-6.106;2023-03-20T06:45:22;100989.09;;;18.98;58.61
58690;BME280;44470;53.206;-6.106;2023-03-20T06:47:59;101001.53;;;18.99;58.67
58690;BME280;44470;53.206;-6.106;2023-03-20T06:50:25;101009.53;;;18.99;58.68
58690;BME280;44470;53.206;-6.106;2023-03-20T06:52:51;100999.78;;;18.98;58.55
58690;BME280;44470;53.206;-6.106;2023-03-20T06:55:38;101012.22;;;18.99;58.59
58690;BME280;44470;53.206;-6.106;2023-03-20T06:58:04;101021.09;;;18.98;58.69
58690;BME280;44470;53.206;-6.106;2023-03-20T07:00:31;101026.44;;;18.98;58.82
58690;BME280;44470;53.206;-6.106;2023-03-20T07:03:00;101032.69;;;18.99;58.68
58690;BME280;44470;53.206;-6.106;2023-03-20T07:05:26;101033.53;;;18.99;58.46
58690;BME280;44470;53.206;-6.106;2023-03-20T07:07:53;101044.22;;;18.99;58.52
58690;BME280;44470;53.206;-6.106;2023-03-20T07:10:19;101037.13;;;18.98;58.73
58690;BME280;44470;53.206;-6.106;2023-03-20T07:12:48;101033.53;;;18.99;58.71
58690;BME280;44470;53.206;-6.106;2023-03-20T07:15:16;101029.09;;;18.98;58.81
58690;BME280;44470;53.206;-6.106;2023-03-20T07:17:43;101018.44;;;18.98;58.66
58690;BME280;44470;53.206;-6.106;2023-03-20T07:20:09;101006.00;;;18.99;58.82
58690;BME280;44470;53.206;-6.106;2023-03-20T07:22:35;101005.09;;;18.98;58.81
58690;BME280;44470;53.206;-6.106;2023-03-20T07:25:13;101021.09;;;18.98;58.61
58690;BME280;44470;53.206;-6.106;2023-03-20T07:27:39;101026.44;;;18.98;58.76
58690;BME280;44470;53.206;-6.106;2023-03-20T07:30:05;101016.66;;;18.99;58.77
58690;BME280;44470;53.206;-6.106;2023-03-20T07:32:31;101025.53;;;18.99;58.65
58690;BME280;44470;53.206;-6.106;2023-03-20T07:34:57;101022.91;;;18.98;58.79
58690;BME280;44470;53.206;-6.106;2023-03-20T07:37:26;101033.59;;;18.98;58.55
58690;BME280;44470;53.206;-6.106;2023-03-20T07:39:56;101034.44;;;18.98;59.04
58690;BME280;44470;53.206;-6.106;2023-03-20T07:42:32;101030.88;;;18.99;58.69
58690;BME280;44470;53.206;-6.106;2023-03-20T07:45:06;101027.34;;;18.97;58.55
58690;BME280;44470;53.206;-6.106;2023-03-20T07:47:34;101037.13;;;18.98;58.28
58690;BME280;44470;53.206;-6.106;2023-03-20T07:50:06;101047.78;;;18.98;58.45
58690;BME280;44470;53.206;-6.106;2023-03-20T07:52:32;101046.00;;;18.97;58.38
58690;BME280;44470;53.206;-6.106;2023-03-20T07:54:57;101049.59;;;18.98;58.43
58690;BME280;44470;53.206;-6.106;2023-03-20T07:57:48;101046.00;;;18.97;58.60
58690;BME280;44470;53.206;-6.106;2023-03-20T08:00:15;101046.91;;;18.98;58.46
58690;BME280;44470;53.206;-6.106;2023-03-20T08:02:41;101038.88;;;18.96;58.41
58690;BME280;44470;53.206;-6.106;2023-03-20T08:05:07;101028.22;;;18.96;58.39
58690;BME280;44470;53.206;-6.106;2023-03-20T08:07:33;101032.69;;;18.96;58.24
58690;BME280;44470;53.206;-6.106;2023-03-20T08:09:59;101049.56;;;18.96;58.42
58690;BME280;44470;53.206;-6.106;2023-03-20T08:12:25;101051.34;;;18.97;58.47
58690;BME280;44470;53.206;-6.106;2023-03-20T08:14:51;101060.22;;;18.96;58.37
58690;BME280;44470;53.206;-6.106;2023-03-20T08:17:17;101065.56;;;18.96;58.32
58690;BME280;44470;53.206;-6.106;2023-03-20T08:19:42;101065.56;;;18.96;58.52
58690;BME280;44470;53.206;-6.106;2023-03-20T08:22:08;101062.88;;;18.96;58.59
58690;BME280;44470;53.206;-6.106;2023-03-20T08:24:33;101054.03;;;18.96;58.35
58690;BME280;44470;53.206;-6.106;2023-03-20T08:26:59;101053.13;;;18.97;58.78
58690;BME280;44470;53.206;-6.106;2023-03-20T08:29:28;101048.69;;;18.96;58.54
58690;BME280;44470;53.206;-6.106;2023-03-20T08:31:53;101043.34;;;18.96;58.51
58690;BME280;44470;53.206;-6.106;2023-03-20T08:34:20;101031.78;;;18.95;58.57
58690;BME280;44470;53.206;-6.106;2023-03-20T08:36:45;101042.44;;;18.95;58.50
58690;BME280;44470;53.206;-6.106;2023-03-20T08:39:11;101047.78;;;18.95;58.73
58690;BME280;44470;53.206;-6.106;2023-03-20T08:41:37;101051.34;;;18.97;58.75
58690;BME280;44470;53.206;-6.106;2023-03-20T08:44:08;101053.13;;;18.97;58.63
58690;BME280;44470;53.206;-6.106;2023-03-20T08:46:33;101058.44;;;18.98;58.68
58690;BME280;44470;53.206;-6.106;2023-03-20T08:48:59;101061.13;;;18.97;58.78
58690;BME280;44470;53.206;-6.106;2023-03-20T08:51:25;101054.00;;;18.97;58.58
58690;BME280;44470;53.206;-6.106;2023-03-20T08:53:51;101048.69;;;18.96;58.55
58690;BME280;44470;53.206;-6.106;2023-03-20T08:56:17;101054.88;;;18.96;58.82
58690;BME280;44470;53.206;-6.106;2023-03-20T08:58:43;101062.03;;;18.97;58.68
58690;BME280;44470;53.206;-6.106;2023-03-20T09:01:09;101051.34;;;18.94;58.56
58690;BME280;44470;53.206;-6.106;2023-03-20T09:03:36;101055.78;;;18.95;58.70
58690;BME280;44470;53.206;-6.106;2023-03-20T09:06:05;101062.03;;;18.94;58.50
58690;BME280;44470;53.206;-6.106;2023-03-20T09:08:31;101070.88;;;18.96;58.64
58690;BME280;44470;53.206;-6.106;2023-03-20T09:10:57;101069.13;;;18.95;58.64
58690;BME280;44470;53.206;-6.106;2023-03-20T09:13:23;101072.69;;;18.96;58.94
58690;BME280;44470;53.206;-6.106;2023-03-20T09:15:50;101070.91;;;18.95;58.68
58690;BME280;44470;53.206;-6.106;2023-03-20T09:18:16;101069.13;;;18.95;58.78
58690;BME280;44470;53.206;-6.106;2023-03-20T09:20:42;101055.78;;;18.95;58.94
58690;BME280;44470;53.206;-6.106;2023-03-20T09:23:07;101055.78;;;18.95;58.61
58690;BME280;44470;53.206;-6.106;2023-03-20T09:25:32;101061.13;;;18.95;59.09
58690;BME280;44470;53.206;-6.106;2023-03-20T09:27:58;101069.13;;;18.95;58.50
58690;BME280;44470;53.206;-6.106;2023-03-20T09:30:24;101069.13;;;18.95;58.98
58690;BME280;44470;53.206;-6.106;2023-03-20T09:32:50;101068.25;;;18.95;58.77
58690;BME280;44470;53.206;-6.106;2023-03-20T09:35:17;101070.03;;;18.94;58.96
58690;BME280;44470;53.206;-6.106;2023-03-20T09:37:42;101067.34;;;18.94;58.62
58690;BME280;44470;53.206;-6.106;2023-03-20T09:40:20;101067.34;;;18.94;58.92
58690;BME280;44470;53.206;-6.106;2023-03-20T09:53:33;101063.81;;;18.94;58.71
58690;BME280;44470;53.206;-6.106;2023-03-20T09:56:00;101070.03;;;18.94;58.85
58690;BME280;44470;53.206;-6.106;2023-03-20T09:58:33;101065.59;;;18.93;59.09
58690;BME280;44470;53.206;-6.106;2023-03-20T10:01:06;101068.25;;;18.93;58.94
58690;BME280;44470;53.206;-6.106;2023-03-20T10:03:42;101081.59;;;18.93;58.73
58690;BME280;44470;53.206;-6.106;2023-03-20T10:06:13;101076.25;;;18.93;58.87
58690;BME280;44470;53.206;-6.106;2023-03-20T10:08:39;101058.50;;;18.92;58.80
58690;BME280;44470;53.206;-6.106;2023-03-20T10:16:16;101055.81;;;18.92;58.83
58690;BME280;44470;53.206;-6.106;2023-03-20T10:19:14;101065.59;;;18.93;59.04
58690;BME280;44470;53.206;-6.106;2023-03-20T10:21:43;101066.50;;;18.92;58.86
58690;BME280;44470;53.206;-6.106;2023-03-20T10:24:21;101075.38;;;18.93;59.09
58690;BME280;44470;53.206;-6.106;2023-03-20T10:26:52;101063.81;;;18.92;59.01
58690;BME280;44470;53.206;-6.106;2023-03-20T10:29:53;101069.16;;;18.92;59.12
58690;BME280;44470;53.206;-6.106;2023-03-20T10:32:21;101070.97;;;18.92;59.10
58690;BME280;44470;53.206;-6.106;2023-03-20T10:40:31;101062.06;;;18.91;58.90
58690;BME280;44470;53.206;-6.106;2023-03-20T10:43:17;101059.38;;;18.91;59.09
58690;BME280;44470;53.206;-6.106;2023-03-20T10:45:49;101056.72;;;18.91;58.98
58690;BME280;44470;53.206;-6.106;2023-03-20T10:48:37;101052.28;;;18.92;58.98
58690;BME280;44470;53.206;-6.106;2023-03-20T10:51:04;101056.72;;;18.91;58.94
58690;BME280;44470;53.206;-6.106;2023-03-20T10:53:54;101054.06;;;18.91;59.14
58690;BME280;44470;53.206;-6.106;2023-03-20T10:56:33;101051.38;;;18.91;59.10
58690;BME280;44470;53.206;-6.106;2023-03-20T10:59:09;101056.72;;;18.91;59.12
58690;BME280;44470;53.206;-6.106;2023-03-20T11:01:36;101054.97;;;18.90;58.98
58690;BME280;44470;53.206;-6.106;2023-03-20T11:04:02;101056.72;;;18.91;59.02
58690;BME280;44470;53.206;-6.106;2023-03-20T11:06:32;101051.38;;;18.91;58.94
58690;BME280;44470;53.206;-6.106;2023-03-20T11:09:14;101053.16;;;18.92;59.30
58690;BME280;44470;53.206;-6.106;2023-03-20T11:11:46;101060.28;;;18.92;59.08
58690;BME280;44470;53.206;-6.106;2023-03-20T11:14:16;101048.72;;;18.91;58.90
58690;BME280;44470;53.206;-6.106;2023-03-20T11:16:47;101050.53;;;18.91;59.10
58690;BME280;44470;53.206;-6.106;2023-03-20T11:19:15;101060.28;;;18.90;59.03
58690;BME280;44470;53.206;-6.106;2023-03-20T11:21:49;101039.84;;;18.91;59.02
58690;BME280;44470;53.206;-6.106;2023-03-20T11:24:26;101042.53;;;18.91;59.18
58690;BME280;44470;53.206;-6.106;2023-03-20T11:27:04;101038.94;;;18.90;58.88
58690;BME280;44470;53.206;-6.106;2023-03-20T11:29:31;101033.63;;;18.90;58.89
58690;BME280;44470;53.206;-6.106;2023-03-20T11:32:13;101035.38;;;18.91;58.88
58690;BME280;44470;53.206;-6.106;2023-03-20T11:34:42;101022.09;;;18.90;59.04
58690;BME280;44470;53.206;-6.106;2023-03-20T11:37:25;101030.06;;;18.91;58.96
58690;BME280;44470;53.206;-6.106;2023-03-20T11:42:26;101022.09;;;18.90;58.96
58690;BME280;44470;53.206;-6.106;2023-03-20T11:44:58;101029.19;;;18.89;58.78
58690;BME280;44470;53.206;-6.106;2023-03-20T11:47:26;101022.94;;;18.90;58.87
58690;BME280;44470;53.206;-6.106;2023-03-20T11:49:55;101029.19;;;18.89;58.89
58690;BME280;44470;53.206;-6.106;2023-03-20T11:52:24;101024.72;;;18.91;59.09
58690;BME280;44470;53.206;-6.106;2023-03-20T11:54:54;101027.41;;;18.90;58.93
58690;BME280;44470;53.206;-6.106;2023-03-20T11:57:32;101023.84;;;18.91;59.00
58690;BME280;44470;53.206;-6.106;2023-03-20T12:02:35;101015.84;;;18.91;58.97
58690;BME280;44470;53.206;-6.106;2023-03-20T12:07:57;101012.28;;;18.92;58.65
58690;BME280;44470;53.206;-6.106;2023-03-20T12:10:27;101003.38;;;18.91;58.89
58690;BME280;44470;53.206;-6.106;2023-03-20T12:12:56;100996.28;;;18.90;59.06
58690;BME280;44470;53.206;-6.106;2023-03-20T12:15:28;100990.94;;;18.90;58.98
58690;BME280;44470;53.206;-6.106;2023-03-20T12:28:50;101003.38;;;18.91;58.89
58690;BME280;44470;53.206;-6.106;2023-03-20T12:31:54;101001.63;;;18.90;59.19
58690;BME280;44470;53.206;-6.106;2023-03-20T12:34:51;100982.03;;;18.91;59.13
58690;BME280;44470;53.206;-6.106;2023-03-20T12:37:20;100987.38;;;18.91;59.10
58690;BME280;44470;53.206;-6.106;2023-03-20T12:39:53;100987.38;;;18.91;58.89
58690;BME280;44470;53.206;-6.106;2023-03-20T12:45:04;100982.03;;;18.91;58.91
58690;BME280;44470;53.206;-6.106;2023-03-20T12:50:39;100974.03;;;18.93;59.28
58690;BME280;44470;53.206;-6.106;2023-03-20T12:56:14;100966.03;;;18.91;59.42
58690;BME280;44470;53.206;-6.106;2023-03-20T13:01:28;100968.72;;;18.91;59.26
58690;BME280;44470;53.206;-6.106;2023-03-20T13:04:24;100964.28;;;18.90;59.22
58690;BME280;44470;53.206;-6.106;2023-03-20T13:07:01;100966.94;;;18.90;59.28
58690;BME280;44470;53.206;-6.106;2023-03-20T13:12:16;100968.72;;;18.91;59.48
58690;BME280;44470;53.206;-6.106;2023-03-20T13:17:30;100955.38;;;18.91;59.42
58690;BME280;44470;53.206;-6.106;2023-03-20T13:20:18;100954.50;;;18.91;59.05
58690;BME280;44470;53.206;-6.106;2023-03-20T13:31:19;100929.63;;;18.88;59.32
58690;BME280;44470;53.206;-6.106;2023-03-20T13:39:11;100922.50;;;18.89;59.30
58690;BME280;44470;53.206;-6.106;2023-03-20T13:41:38;100912.75;;;18.88;59.42
58690;BME280;44470;53.206;-6.106;2023-03-20T13:44:05;100914.50;;;18.89;59.60
58690;BME280;44470;53.206;-6.106;2023-03-20T13:46:45;100915.44;;;18.86;60.04
58690;BME280;44470;53.206;-6.106;2023-03-20T13:49:17;100913.69;;;18.85;59.72
58690;BME280;44470;53.206;-6.106;2023-03-20T13:51:49;100910.97;;;18.87;60.05
58690;BME280;44470;53.206;-6.106;2023-03-20T14:00:27;100894.84;;;18.96;60.66
58690;BME280;44470;53.206;-6.106;2023-03-20T14:03:31;100890.38;;;19.01;61.16
58690;BME280;44470;53.206;-6.106;2023-03-20T14:05:55;100883.25;;;19.02;61.18
58690;BME280;44470;53.206;-6.106;2023-03-20T14:11:24;100879.72;;;19.00;62.06
58690;BME280;44470;53.206;-6.106;2023-03-20T14:14:02;100870.88;;;18.98;63.33
58690;BME280;44470;53.206;-6.106;2023-03-20T14:16:30;100869.97;;;18.97;62.54
58690;BME280;44470;53.206;-6.106;2023-03-20T14:19:05;100863.75;;;18.97;61.64
58690;BME280;44470;53.206;-6.106;2023-03-20T14:21:33;100858.47;;;18.92;61.35
58690;BME280;44470;53.206;-6.106;2023-03-20T14:24:02;100860.22;;;18.95;60.89
58690;BME280;44470;53.206;-6.106;2023-03-20T14:26:31;100861.97;;;18.96;60.89
58690;BME280;44470;53.206;-6.106;2023-03-20T14:29:01;100861.97;;;18.94;60.67
58690;BME280;44470;53.206;-6.106;2023-03-20T14:31:32;100857.56;;;18.93;60.38
58690;BME280;44470;53.206;-6.106;2023-03-20T14:42:01;100851.34;;;18.91;60.16
58690;BME280;44470;53.206;-6.106;2023-03-20T14:44:43;100850.47;;;18.92;59.84
58690;BME280;44470;53.206;-6.106;2023-03-20T14:52:58;100844.25;;;18.92;59.88
58690;BME280;44470;53.206;-6.106;2023-03-20T14:57:56;100846.94;;;18.90;59.95
58690;BME280;44470;53.206;-6.106;2023-03-20T15:00:27;100845.16;;;18.91;60.04
58690;BME280;44470;53.206;-6.106;2023-03-20T15:05:32;100828.25;;;18.90;60.01
58690;BME280;44470;53.206;-6.106;2023-03-20T15:08:11;100818.50;;;18.89;60.16
58690;BME280;44470;53.206;-6.106;2023-03-20T15:10:45;100821.16;;;18.91;59.87
58690;BME280;44470;53.206;-6.106;2023-03-20T15:13:13;100820.25;;;18.90;59.97
58690;BME280;44470;53.206;-6.106;2023-03-20T15:15:56;100823.78;;;18.92;59.83
58690;BME280;44470;53.206;-6.106;2023-03-20T15:18:25;100830.03;;;18.91;59.99
58690;BME280;44470;53.206;-6.106;2023-03-20T15:20:51;100828.25;;;18.90;59.80
58690;BME280;44470;53.206;-6.106;2023-03-20T15:23:19;100821.16;;;18.91;59.95
58690;BME280;44470;53.206;-6.106;2023-03-20T15:25:46;100824.69;;;18.91;59.80
58690;BME280;44470;53.206;-6.106;2023-03-20T15:28:18;100822.88;;;18.93;59.80
58690;BME280;44470;53.206;-6.106;2023-03-20T15:30:45;100814.91;;;18.92;59.53
58690;BME280;44470;53.206;-6.106;2023-03-20T15:35:51;100814.00;;;18.93;59.51